KITH/ITH METAR and TAF weather

Enter ICAO airport designator
Station Type Date Time Source
KITH METAR 2020/12/06 00:56 UTC NOAA

KITH 060056Z 33010KT 7SM -SN OVC006 00/M01 A2989 RMK AO2 UPB03E18SNE03B18 SLP133 P0000 T00001011


Station Type Date Time Source
KITH Decoded METAR 2020/12/06 00:56 UTC NOAA

Ithaca, Ithaca Tompkins Regional Airport, NY, United States (KITH) 42-29-27N 076-27-30W
Dec 05, 2020 - 07:56 PM EST / 2020.12.06 0056 UTC
Wind: from the NNW (330 degrees) at 12 MPH (10 KT):0
Visibility: 7 mile(s):0
Sky conditions: overcast
Weather: light snow
Precipitation last hour: A trace
Temperature: 32.0 F (0.0 C)
Windchill: 23 F (-5 C):1
Dew Point: 30.0 F (-1.1 C)
Relative Humidity: 92%
Pressure (altimeter): 29.89 in. Hg (1012 hPa)
ob: KITH 060056Z 33010KT 7SM -SN OVC006 00/M01 A2989 RMK AO2 UPB03E18SNE03B18 SLP133 P0000 T00001011
cycle: 1

Station Type Date Time Source
KITH TAF 2020/12/06 00:12 UTC NOAA

TAF
AMD KITH 060009Z 0600/0624 33012KT 6SM -SHSN SCT006 OVC010
TEMPO 0600/0604 5SM -SHSN OVC006
FM060400 31010KT 5SM -SHSN OVC006
FM061300 32010G20KT P6SM OVC015
FM062000 31010G20KT P6SM BKN025

Example: see airport list